createdAt,value
2022-12-14T00:01:39.262Z,99.90
2022-12-14T00:04:05.886Z,99.90
2022-12-14T00:06:32.585Z,99.90
2022-12-14T00:08:59.240Z,99.90
2022-12-14T00:11:25.911Z,99.90
2022-12-14T00:13:52.549Z,99.90
2022-12-14T00:16:19.343Z,99.90
2022-12-14T00:18:46.010Z,99.90
2022-12-14T00:21:12.693Z,99.90
2022-12-14T00:23:39.481Z,99.90
2022-12-14T00:26:06.104Z,99.90
2022-12-14T00:28:32.774Z,99.90
2022-12-14T00:30:59.412Z,99.90
2022-12-14T00:33:26.061Z,99.90
2022-12-14T00:35:52.705Z,99.90
2022-12-14T00:38:19.387Z,99.90
2022-12-14T00:40:46.010Z,99.90
2022-12-14T00:43:12.656Z,99.90
2022-12-14T00:45:39.250Z,99.90
2022-12-14T00:48:05.912Z,99.90
2022-12-14T00:50:32.520Z,99.90
2022-12-14T00:52:59.187Z,99.80
2022-12-14T00:55:25.852Z,99.90
2022-12-14T00:57:52.519Z,99.90
2022-12-14T01:00:19.209Z,99.90
2022-12-14T01:02:45.915Z,99.90
2022-12-14T01:05:12.621Z,99.90
2022-12-14T01:07:39.253Z,99.90
2022-12-14T01:10:05.909Z,99.90
2022-12-14T01:12:32.500Z,99.90
2022-12-14T01:14:59.171Z,99.90
2022-12-14T01:17:25.823Z,99.80
2022-12-14T01:19:52.475Z,99.90
2022-12-14T01:22:19.117Z,99.90
2022-12-14T01:24:45.756Z,99.90
2022-12-14T01:27:12.430Z,99.80
2022-12-14T01:29:39.071Z,99.90
2022-12-14T01:32:05.715Z,99.90
2022-12-14T01:34:32.376Z,99.90
2022-12-14T01:36:59.091Z,99.90
2022-12-14T01:39:25.814Z,99.90
2022-12-14T01:41:52.458Z,99.90
2022-12-14T01:44:19.117Z,99.50
2022-12-14T01:46:45.829Z,99.70
2022-12-14T01:49:12.481Z,99.90
2022-12-14T01:51:39.677Z,99.90
2022-12-14T01:54:06.359Z,99.90
2022-12-14T01:56:32.997Z,99.90
2022-12-14T01:58:59.686Z,99.90
2022-12-14T02:01:26.431Z,99.90
2022-12-14T02:03:53.163Z,99.90
2022-12-14T02:06:19.785Z,99.90
2022-12-14T02:08:46.381Z,99.90
2022-12-14T02:11:14.252Z,99.90
2022-12-14T02:13:40.932Z,99.90
2022-12-14T02:16:07.600Z,99.90
2022-12-14T02:18:34.290Z,99.90
2022-12-14T02:21:00.977Z,99.90
2022-12-14T02:23:27.951Z,99.90
2022-12-14T02:25:54.862Z,99.90
2022-12-14T02:28:21.517Z,99.90
2022-12-14T02:30:48.111Z,99.90
2022-12-14T02:33:14.740Z,99.90
2022-12-14T02:35:41.384Z,99.90
2022-12-14T02:38:08.022Z,99.90
2022-12-14T02:40:34.627Z,99.90
2022-12-14T02:43:01.303Z,99.90
2022-12-14T02:45:27.935Z,99.90
2022-12-14T02:47:54.671Z,99.90
2022-12-14T02:50:21.328Z,99.90
2022-12-14T02:52:47.962Z,99.90
2022-12-14T02:55:14.634Z,99.90
2022-12-14T02:57:41.297Z,99.90
2022-12-14T03:00:07.978Z,99.90
2022-12-14T03:02:34.754Z,99.90
2022-12-14T03:05:01.458Z,99.90
2022-12-14T03:07:28.279Z,99.90
2022-12-14T03:09:54.985Z,99.90
2022-12-14T03:12:21.610Z,99.90
2022-12-14T03:14:48.195Z,99.40
2022-12-14T03:17:19.207Z,99.90
2022-12-14T03:19:46.385Z,99.90
2022-12-14T03:22:15.708Z,99.90
2022-12-14T03:24:42.295Z,99.90
2022-12-14T03:27:08.914Z,99.80
2022-12-14T03:29:35.546Z,99.90
2022-12-14T03:32:02.185Z,99.90
2022-12-14T03:34:28.855Z,99.90
2022-12-14T03:36:55.521Z,99.90
2022-12-14T03:39:22.198Z,99.90
2022-12-14T03:41:49.206Z,99.90
2022-12-14T03:44:16.105Z,99.90
2022-12-14T03:46:42.713Z,99.90
2022-12-14T03:49:09.355Z,99.90
2022-12-14T03:51:36.028Z,99.90
2022-12-14T03:54:02.691Z,99.90
2022-12-14T03:56:29.370Z,99.90
2022-12-14T03:58:57.443Z,99.90
2022-12-14T04:01:24.315Z,99.90
2022-12-14T04:03:51.084Z,99.80
2022-12-14T04:06:17.758Z,99.90
2022-12-14T04:08:44.360Z,99.80
2022-12-14T04:11:10.976Z,99.90
2022-12-14T04:13:37.627Z,99.90
2022-12-14T04:16:04.273Z,99.90
2022-12-14T04:18:30.935Z,99.90
2022-12-14T04:20:57.561Z,99.90
2022-12-14T04:26:08.675Z,99.90
2022-12-14T04:28:35.351Z,99.90
2022-12-14T04:31:01.996Z,99.90
2022-12-14T04:33:28.948Z,99.90
2022-12-14T04:35:55.930Z,99.90
2022-12-14T04:38:22.551Z,99.90
2022-12-14T04:40:49.228Z,99.90
2022-12-14T04:43:15.905Z,99.90
2022-12-14T04:45:42.631Z,99.90
2022-12-14T04:48:09.311Z,99.90
2022-12-14T04:50:35.942Z,99.90
2022-12-14T04:53:02.587Z,99.90
2022-12-14T04:55:29.225Z,99.90
2022-12-14T04:57:56.138Z,99.90
2022-12-14T05:00:22.823Z,99.90
2022-12-14T05:02:49.506Z,99.90
2022-12-14T05:05:16.160Z,99.90
2022-12-14T05:07:42.809Z,99.90
2022-12-14T05:10:09.514Z,99.90
2022-12-14T05:12:36.188Z,99.90
2022-12-14T05:15:02.807Z,99.90
2022-12-14T05:17:29.490Z,99.90
2022-12-14T05:19:56.102Z,99.90
2022-12-14T05:22:22.804Z,99.90
2022-12-14T05:24:49.422Z,99.90
2022-12-14T05:27:16.040Z,99.90
2022-12-14T05:29:42.710Z,99.90
2022-12-14T05:32:09.406Z,99.90
2022-12-14T05:34:36.002Z,99.90
2022-12-14T05:37:02.643Z,99.90
2022-12-14T05:39:29.343Z,99.90
2022-12-14T05:41:55.982Z,99.90
2022-12-14T05:44:22.639Z,99.90
2022-12-14T05:46:49.294Z,99.90
2022-12-14T05:49:15.934Z,99.90
2022-12-14T05:51:42.624Z,99.90
2022-12-14T05:54:09.297Z,99.90
2022-12-14T05:56:35.987Z,99.90
2022-12-14T05:59:02.650Z,99.90
2022-12-14T06:01:29.335Z,99.90
2022-12-14T06:03:56.097Z,99.90
2022-12-14T06:06:22.703Z,99.90
2022-12-14T06:08:49.292Z,99.90
2022-12-14T06:11:15.915Z,99.90
2022-12-14T06:13:42.562Z,99.90
2022-12-14T06:16:09.303Z,99.90
2022-12-14T06:18:35.957Z,99.90
2022-12-14T06:21:02.672Z,99.90
2022-12-14T06:23:29.556Z,99.90
2022-12-14T06:25:56.432Z,99.90
2022-12-14T06:28:23.052Z,99.90
2022-12-14T06:30:49.751Z,99.90
2022-12-14T06:33:16.432Z,99.90
2022-12-14T06:35:43.094Z,99.90
2022-12-14T06:38:09.769Z,99.90
2022-12-14T06:40:36.371Z,99.90
2022-12-14T06:43:03.005Z,99.90
2022-12-14T06:45:29.673Z,99.90
2022-12-14T06:47:56.410Z,99.90
2022-12-14T06:50:23.061Z,99.90
2022-12-14T06:52:49.703Z,99.90
2022-12-14T06:55:16.397Z,99.90
2022-12-14T06:57:43.112Z,99.90
2022-12-14T07:00:09.815Z,99.90
2022-12-14T07:02:36.630Z,99.90
2022-12-14T07:05:03.420Z,99.90
2022-12-14T07:07:30.049Z,99.90
2022-12-14T07:09:56.757Z,99.90
2022-12-14T07:12:23.359Z,99.90
2022-12-14T07:14:49.999Z,99.90
2022-12-14T07:17:16.647Z,99.90
2022-12-14T07:19:43.336Z,99.90
2022-12-14T07:22:09.983Z,99.90
2022-12-14T07:24:36.617Z,99.90
2022-12-14T07:27:03.271Z,99.90
2022-12-14T07:29:34.492Z,99.90
2022-12-14T07:32:01.415Z,99.90
2022-12-14T07:34:28.078Z,99.90
2022-12-14T07:36:54.691Z,99.90
2022-12-14T07:39:21.379Z,99.90
2022-12-14T07:41:48.007Z,99.90
2022-12-14T07:44:14.732Z,99.90
2022-12-14T07:46:41.468Z,99.90
2022-12-14T07:49:08.278Z,99.90
2022-12-14T07:51:34.919Z,99.90
2022-12-14T07:54:01.569Z,99.90
2022-12-14T07:56:28.186Z,99.90
2022-12-14T07:58:54.822Z,99.90
2022-12-14T08:01:22.653Z,99.90
2022-12-14T08:03:49.335Z,99.90
2022-12-14T08:06:15.965Z,99.90
2022-12-14T08:08:42.644Z,99.90
2022-12-14T08:11:09.397Z,99.90
2022-12-14T08:13:36.002Z,99.90
2022-12-14T08:16:02.697Z,99.90
2022-12-14T08:18:29.415Z,99.90
2022-12-14T08:20:56.018Z,99.90
2022-12-14T08:23:22.653Z,99.90
2022-12-14T08:25:49.328Z,99.90
2022-12-14T08:28:15.980Z,99.90
2022-12-14T08:30:42.652Z,99.90
2022-12-14T08:33:09.323Z,99.90
2022-12-14T08:35:36.093Z,99.90
2022-12-14T08:38:02.715Z,99.90
2022-12-14T08:40:29.347Z,99.90
2022-12-14T08:42:55.980Z,99.90
2022-12-14T08:45:22.593Z,99.90
2022-12-14T08:47:49.255Z,99.90
2022-12-14T08:50:15.907Z,99.90
2022-12-14T08:52:42.575Z,99.90
2022-12-14T08:55:09.236Z,99.90
2022-12-14T08:57:35.839Z,99.90
2022-12-14T09:00:03.018Z,99.90
2022-12-14T09:02:30.024Z,99.90
2022-12-14T09:04:56.789Z,99.90
2022-12-14T09:07:23.430Z,99.90
2022-12-14T09:09:50.172Z,99.90
2022-12-14T09:12:16.811Z,99.90
2022-12-14T09:14:43.426Z,99.90
2022-12-14T09:17:10.083Z,99.90
2022-12-14T09:19:36.725Z,99.90
2022-12-14T09:22:03.443Z,99.90
2022-12-14T09:24:30.113Z,99.90
2022-12-14T09:26:56.742Z,99.90
2022-12-14T09:29:23.380Z,99.90
2022-12-14T09:31:50.044Z,99.90
2022-12-14T09:34:16.750Z,99.90
2022-12-14T09:36:43.610Z,99.90
2022-12-14T09:39:10.290Z,99.90
2022-12-14T09:41:36.929Z,99.90
2022-12-14T09:44:03.665Z,99.90
2022-12-14T09:46:30.339Z,99.90
2022-12-14T09:48:56.950Z,99.90
2022-12-14T09:51:23.607Z,99.90
2022-12-14T09:53:50.330Z,99.90
2022-12-14T09:56:16.977Z,99.90
2022-12-14T09:58:43.652Z,99.90
2022-12-14T10:01:10.446Z,99.90
2022-12-14T10:03:37.673Z,99.90
2022-12-14T10:06:04.576Z,99.90
2022-12-14T10:08:31.780Z,99.90
2022-12-14T10:10:58.846Z,99.90
2022-12-14T10:13:25.466Z,99.90
2022-12-14T10:15:52.147Z,99.90
2022-12-14T10:18:41.369Z,99.90
2022-12-14T10:21:05.481Z,99.90
2022-12-14T10:23:32.179Z,99.90
2022-12-14T10:25:58.825Z,99.90
2022-12-14T10:28:25.446Z,99.90
2022-12-14T10:33:36.481Z,99.90
2022-12-14T10:36:03.169Z,99.90
2022-12-14T10:38:30.245Z,99.90
2022-12-14T10:40:57.132Z,99.90
2022-12-14T10:43:23.762Z,99.90
2022-12-14T10:45:50.533Z,99.90
2022-12-14T10:48:17.268Z,99.90
2022-12-14T10:50:43.915Z,99.90
2022-12-14T10:53:16.556Z,99.90
2022-12-14T10:55:43.213Z,99.90
2022-12-14T10:58:09.902Z,99.90
2022-12-14T11:00:36.585Z,99.90
2022-12-14T11:03:03.328Z,99.90
2022-12-14T11:05:36.171Z,99.90
2022-12-14T11:08:03.479Z,99.90
2022-12-14T11:10:30.229Z,99.90
2022-12-14T11:12:56.864Z,99.90
2022-12-14T11:15:23.452Z,99.90
2022-12-14T11:17:50.195Z,99.20
2022-12-14T11:20:16.914Z,99.10
2022-12-14T11:22:43.590Z,99.40
2022-12-14T11:25:10.187Z,99.40
2022-12-14T11:27:36.872Z,99.70
2022-12-14T11:30:03.473Z,99.50
2022-12-14T11:32:30.134Z,99.40
2022-12-14T11:34:56.737Z,99.90
2022-12-14T11:37:23.346Z,99.30
2022-12-14T11:39:50.054Z,99.10
2022-12-14T11:42:16.696Z,99.10
2022-12-14T11:44:43.310Z,99.90
2022-12-14T11:47:09.901Z,99.90
2022-12-14T11:49:36.555Z,99.90
2022-12-14T11:52:03.226Z,99.90
2022-12-14T11:54:29.814Z,99.90
2022-12-14T11:56:56.485Z,99.50
2022-12-14T11:59:23.119Z,99.90
2022-12-14T12:01:49.826Z,99.90
2022-12-14T12:04:16.584Z,99.90
2022-12-14T12:06:43.259Z,99.90
2022-12-14T12:09:10.881Z,99.50
2022-12-14T12:11:37.487Z,99.90
2022-12-14T12:14:04.147Z,99.50
2022-12-14T12:16:30.840Z,99.10
2022-12-14T12:18:57.499Z,98.90
2022-12-14T12:21:24.121Z,98.70
2022-12-14T12:23:50.783Z,99.00
2022-12-14T12:26:17.471Z,98.80
2022-12-14T12:28:44.137Z,99.20
2022-12-14T12:31:11.393Z,99.70
2022-12-14T12:33:38.156Z,99.80
2022-12-14T12:36:04.755Z,99.70
2022-12-14T12:38:31.676Z,99.90
2022-12-14T12:40:58.556Z,99.10
2022-12-14T12:43:25.206Z,99.50
2022-12-14T12:45:51.839Z,99.10
2022-12-14T12:48:18.438Z,99.00
2022-12-14T12:50:49.843Z,98.90
2022-12-14T12:53:16.737Z,99.00
2022-12-14T12:55:43.365Z,98.80
2022-12-14T12:58:10.267Z,98.90
2022-12-14T13:00:37.016Z,99.00
2022-12-14T13:03:03.759Z,99.50
2022-12-14T13:05:46.359Z,99.90
2022-12-14T13:08:13.608Z,99.90
2022-12-14T13:10:50.447Z,99.90
2022-12-14T13:13:26.852Z,99.90
2022-12-14T13:15:53.540Z,99.90
2022-12-14T13:18:48.866Z,99.90
2022-12-14T13:21:06.815Z,99.90
2022-12-14T13:23:44.865Z,99.90
2022-12-14T13:26:23.426Z,99.90
2022-12-14T13:28:58.829Z,99.90
2022-12-14T13:31:25.478Z,99.90
2022-12-14T13:33:52.111Z,99.90
2022-12-14T13:36:18.771Z,99.90
2022-12-14T13:38:45.403Z,99.90
2022-12-14T13:41:12.124Z,99.90
2022-12-14T13:43:38.772Z,99.90
2022-12-14T13:46:05.442Z,99.90
2022-12-14T13:48:32.382Z,99.90
2022-12-14T13:51:01.821Z,99.90
2022-12-14T13:53:29.099Z,99.90
2022-12-14T13:55:55.758Z,99.90
2022-12-14T13:58:22.455Z,99.90
2022-12-14T14:00:49.125Z,99.90
2022-12-14T14:03:15.843Z,99.90
2022-12-14T14:05:42.522Z,99.90
2022-12-14T14:08:09.179Z,99.90
2022-12-14T14:10:35.885Z,99.90
2022-12-14T14:13:02.503Z,99.90
2022-12-14T14:15:29.108Z,99.90
2022-12-14T14:17:56.675Z,99.90
2022-12-14T14:20:23.368Z,99.90
2022-12-14T14:22:50.027Z,99.90
2022-12-14T14:25:16.715Z,99.90
2022-12-14T14:27:43.392Z,99.90
2022-12-14T14:30:17.070Z,99.90
2022-12-14T14:32:43.739Z,99.90
2022-12-14T14:35:10.396Z,99.90
2022-12-14T14:37:37.033Z,99.90
2022-12-14T14:40:16.779Z,99.90
2022-12-14T14:42:48.700Z,99.90
2022-12-14T14:45:15.355Z,99.90
2022-12-14T14:47:42.041Z,99.90
2022-12-14T14:50:08.639Z,99.90
2022-12-14T14:52:35.297Z,99.90
2022-12-14T14:55:50.659Z,99.90
2022-12-14T14:57:48.556Z,99.90
2022-12-14T15:00:15.371Z,99.90
2022-12-14T15:02:42.160Z,99.90
2022-12-14T15:05:40.941Z,99.90
2022-12-14T15:07:55.553Z,99.90
2022-12-14T15:10:22.882Z,99.90
2022-12-14T15:12:49.721Z,99.90
2022-12-14T15:15:16.364Z,99.90
2022-12-14T15:17:43.048Z,99.90
2022-12-14T15:20:09.710Z,99.90
2022-12-14T15:22:36.401Z,99.90
2022-12-14T15:25:02.997Z,99.90
2022-12-14T15:27:29.791Z,99.90
2022-12-14T15:29:56.483Z,99.90
2022-12-14T15:32:23.092Z,99.90
2022-12-14T15:34:49.688Z,99.90
2022-12-14T15:37:16.332Z,99.90
2022-12-14T15:39:42.994Z,99.90
2022-12-14T15:42:09.692Z,99.90
2022-12-14T15:44:36.350Z,99.90
2022-12-14T15:47:02.999Z,99.90
2022-12-14T15:49:29.706Z,99.90
2022-12-14T15:51:56.351Z,99.90
2022-12-14T15:54:23.012Z,99.90
2022-12-14T15:56:49.664Z,99.90
2022-12-14T15:59:16.300Z,99.90
2022-12-14T16:01:46.073Z,99.90
2022-12-14T16:04:16.874Z,99.90
2022-12-14T16:06:43.575Z,99.90
2022-12-14T16:09:10.202Z,99.90
2022-12-14T16:11:36.822Z,99.90
2022-12-14T16:14:03.411Z,99.90
2022-12-14T16:16:30.187Z,99.90
2022-12-14T16:19:13.847Z,99.90
2022-12-14T16:21:43.563Z,99.90
2022-12-14T16:24:10.250Z,99.90
2022-12-14T16:26:36.932Z,99.90
2022-12-14T16:29:03.590Z,99.90
2022-12-14T16:31:30.250Z,99.90
2022-12-14T16:33:56.953Z,99.90
2022-12-14T16:36:23.639Z,99.90
2022-12-14T16:38:50.306Z,99.90
2022-12-14T16:41:16.960Z,99.90
2022-12-14T16:43:43.654Z,99.90
2022-12-14T16:46:10.389Z,99.90
2022-12-14T16:48:37.145Z,99.90
2022-12-14T16:51:14.363Z,99.90
2022-12-14T16:53:44.079Z,99.90
2022-12-14T16:56:10.898Z,99.90
2022-12-14T16:58:37.630Z,99.90
2022-12-14T17:01:04.326Z,99.90
2022-12-14T17:03:31.483Z,99.90
2022-12-14T17:05:58.585Z,99.90
2022-12-14T17:08:25.228Z,99.90
2022-12-14T17:10:51.837Z,99.90
2022-12-14T17:13:18.543Z,99.90
2022-12-14T17:15:45.211Z,99.90
2022-12-14T17:18:15.977Z,99.90
2022-12-14T17:20:42.646Z,99.90
2022-12-14T17:23:09.255Z,99.90
2022-12-14T17:25:35.928Z,99.90
2022-12-14T17:28:02.627Z,99.90
2022-12-14T17:30:29.396Z,99.90
2022-12-14T17:32:56.067Z,99.90
2022-12-14T17:35:22.660Z,99.90
2022-12-14T17:37:49.476Z,99.90
2022-12-14T17:40:16.154Z,99.90
2022-12-14T17:42:42.844Z,99.90
2022-12-14T17:45:09.502Z,99.90
2022-12-14T17:47:36.192Z,99.90
2022-12-14T17:50:02.877Z,99.90
2022-12-14T17:52:29.559Z,99.90
2022-12-14T17:54:56.168Z,99.90
2022-12-14T17:57:22.806Z,99.90
2022-12-14T17:59:49.478Z,99.90
2022-12-14T18:02:16.285Z,99.90
2022-12-14T18:04:43.052Z,99.90
2022-12-14T18:07:09.703Z,99.90
2022-12-14T18:09:36.358Z,99.90
2022-12-14T18:12:25.350Z,99.90
2022-12-14T18:14:49.683Z,99.90
2022-12-14T18:17:16.387Z,99.90
2022-12-14T18:19:43.051Z,99.90
2022-12-14T18:22:10.989Z,99.90
2022-12-14T18:24:37.589Z,99.90
2022-12-14T18:27:04.254Z,99.90
2022-12-14T18:29:31.015Z,99.90
2022-12-14T18:31:57.745Z,99.90
2022-12-14T18:34:24.493Z,99.90
2022-12-14T18:36:51.111Z,99.90
2022-12-14T18:39:17.752Z,99.90
2022-12-14T18:41:44.401Z,99.90
2022-12-14T18:44:11.032Z,99.90
2022-12-14T18:46:37.757Z,99.90
2022-12-14T18:49:04.548Z,99.90
2022-12-14T18:51:31.200Z,99.90
2022-12-14T18:53:57.882Z,99.90
2022-12-14T18:56:24.578Z,99.90
2022-12-14T18:58:51.278Z,99.90
2022-12-14T19:01:18.052Z,99.90
2022-12-14T19:03:45.144Z,99.90
2022-12-14T19:06:42.857Z,99.90
2022-12-14T19:08:58.584Z,99.90
2022-12-14T19:11:25.204Z,99.90
2022-12-14T19:13:51.799Z,99.90
2022-12-14T19:16:18.467Z,99.90
2022-12-14T19:18:45.169Z,99.90
2022-12-14T19:21:11.851Z,99.90
2022-12-14T19:23:38.546Z,99.90
2022-12-14T19:26:05.241Z,99.90
2022-12-14T19:28:33.365Z,99.90
2022-12-14T19:31:00.424Z,99.90
2022-12-14T19:33:27.535Z,99.90
2022-12-14T19:35:54.413Z,99.90
2022-12-14T19:38:21.162Z,99.90
2022-12-14T19:40:48.906Z,99.90
2022-12-14T19:43:15.666Z,99.90
2022-12-14T19:45:42.328Z,99.90
2022-12-14T19:48:13.105Z,99.90
2022-12-14T19:50:40.033Z,99.90
2022-12-14T19:53:10.801Z,99.90
2022-12-14T19:55:37.513Z,99.90
2022-12-14T19:58:05.255Z,99.90
2022-12-14T20:00:34.767Z,99.90
2022-12-14T20:03:01.700Z,99.90
2022-12-14T20:05:28.529Z,99.90
2022-12-14T20:07:57.929Z,99.90
2022-12-14T20:10:24.643Z,99.90
2022-12-14T20:12:51.374Z,99.90
2022-12-14T20:15:18.071Z,99.90
2022-12-14T20:17:44.799Z,99.90
2022-12-14T20:20:11.438Z,99.90
2022-12-14T20:22:38.153Z,99.90
2022-12-14T20:25:05.905Z,99.90
2022-12-14T20:27:37.447Z,99.90
2022-12-14T20:30:07.089Z,99.90
2022-12-14T20:32:33.750Z,99.90
2022-12-14T20:35:00.426Z,99.90
2022-12-14T20:37:27.051Z,99.90
2022-12-14T20:39:53.663Z,99.90
2022-12-14T20:42:20.294Z,99.90
2022-12-14T20:44:49.249Z,99.90
2022-12-14T20:47:16.319Z,99.90
2022-12-14T20:49:43.185Z,99.90
2022-12-14T20:52:09.860Z,99.90
2022-12-14T20:54:36.688Z,99.90
2022-12-14T20:57:03.330Z,99.90
2022-12-14T20:59:29.992Z,99.90
2022-12-14T21:01:57.091Z,99.90
2022-12-14T21:04:23.971Z,99.90
2022-12-14T21:06:50.585Z,99.90
2022-12-14T21:09:17.261Z,99.90
2022-12-14T21:11:43.910Z,99.90
2022-12-14T21:14:10.592Z,99.90
2022-12-14T21:16:37.432Z,99.90
2022-12-14T21:19:04.172Z,99.90
2022-12-14T21:21:30.824Z,99.90
2022-12-14T21:23:57.602Z,99.90
2022-12-14T21:26:24.291Z,99.90
2022-12-14T21:28:50.923Z,99.90
2022-12-14T21:31:17.630Z,99.90
2022-12-14T21:33:49.571Z,99.90
2022-12-14T21:36:16.600Z,99.90
2022-12-14T21:38:43.277Z,99.90
2022-12-14T21:41:09.969Z,99.90
2022-12-14T21:43:36.623Z,99.90
2022-12-14T21:46:03.368Z,99.90
2022-12-14T21:48:30.023Z,99.90
2022-12-14T21:50:56.745Z,99.90
2022-12-14T21:53:23.428Z,99.90
2022-12-14T21:55:50.030Z,99.90
2022-12-14T21:58:16.652Z,99.90
2022-12-14T22:00:43.267Z,99.90
2022-12-14T22:03:09.992Z,99.90
2022-12-14T22:05:36.724Z,99.90
2022-12-14T22:08:03.404Z,99.90
2022-12-14T22:10:30.012Z,99.90
2022-12-14T22:12:56.647Z,99.90
2022-12-14T22:15:23.292Z,99.90
2022-12-14T22:17:49.922Z,99.90
2022-12-14T22:20:16.603Z,99.90
2022-12-14T22:22:43.237Z,99.90
2022-12-14T22:25:09.913Z,99.90
2022-12-14T22:27:36.574Z,99.90
2022-12-14T22:30:03.201Z,99.90
2022-12-14T22:32:29.884Z,99.90
2022-12-14T22:34:56.492Z,99.90
2022-12-14T22:37:23.175Z,99.90
2022-12-14T22:39:49.862Z,99.90
2022-12-14T22:42:16.573Z,99.90
2022-12-14T22:44:43.228Z,99.90
2022-12-14T22:47:09.846Z,99.90
2022-12-14T22:49:36.502Z,99.90
2022-12-14T22:52:03.126Z,99.90
2022-12-14T22:54:29.744Z,99.90
2022-12-14T22:56:56.404Z,99.90
2022-12-14T22:59:23.030Z,99.90
2022-12-14T23:01:50.569Z,99.90
2022-12-14T23:04:17.623Z,99.90
2022-12-14T23:06:44.813Z,99.90
2022-12-14T23:09:11.444Z,99.90
2022-12-14T23:11:38.125Z,99.90
2022-12-14T23:14:04.775Z,99.90
2022-12-14T23:16:31.428Z,99.90
2022-12-14T23:18:58.084Z,99.90
2022-12-14T23:21:24.729Z,99.90
2022-12-14T23:23:51.328Z,99.90
2022-12-14T23:26:18.002Z,99.90
2022-12-14T23:28:44.697Z,99.90
2022-12-14T23:31:16.704Z,99.90
2022-12-14T23:33:43.379Z,99.90
2022-12-14T23:36:10.049Z,99.90
2022-12-14T23:38:36.687Z,99.90
2022-12-14T23:41:03.394Z,99.90
2022-12-14T23:43:30.514Z,99.90
2022-12-14T23:45:57.570Z,99.90
2022-12-14T23:48:24.271Z,99.90
2022-12-14T23:50:50.932Z,99.90
2022-12-14T23:53:18.132Z,99.90
2022-12-14T23:55:44.849Z,99.90
2022-12-14T23:58:11.534Z,99.90
